sensor_id;sensor_type;location;lat;lon;timestamp;pressure;altitude;pressure_sealevel;temperature;humidity
10652;BME280;5374;42.742;23.266;2023-09-18T00:01:34;95912.06;;;17.82;100.00
10652;BME280;5374;42.742;23.266;2023-09-18T00:04:21;95897.28;;;17.84;100.00
10652;BME280;5374;42.742;23.266;2023-09-18T00:07:08;95902.84;;;17.88;100.00
10652;BME280;5374;42.742;23.266;2023-09-18T00:09:58;95896.47;;;17.84;100.00
10652;BME280;5374;42.742;23.266;2023-09-18T00:12:45;95900.69;;;17.90;100.00
10652;BME280;5374;42.742;23.266;2023-09-18T00:15:32;95909.25;;;17.92;100.00
10652;BME280;5374;42.742;23.266;2023-09-18T00:18:19;95908.22;;;17.88;100.00
10652;BME280;5374;42.742;23.266;2023-09-18T00:21:06;95915.59;;;17.77;100.00
10652;BME280;5374;42.742;23.266;2023-09-18T00:23:56;95905.72;;;17.67;100.00
10652;BME280;5374;42.742;23.266;2023-09-18T00:26:45;95908.44;;;17.62;100.00
10652;BME280;5374;42.742;23.266;2023-09-18T00:29:32;95910.66;;;17.55;100.00
10652;BME280;5374;42.742;23.266;2023-09-18T00:32:19;95897.78;;;17.52;100.00
10652;BME280;5374;42.742;23.266;2023-09-18T00:35:07;95909.78;;;17.65;100.00
10652;BME280;5374;42.742;23.266;2023-09-18T00:37:54;95914.44;;;17.54;100.00
10652;BME280;5374;42.742;23.266;2023-09-18T00:40:42;95902.09;;;17.53;100.00
10652;BME280;5374;42.742;23.266;2023-09-18T00:43:30;95892.09;;;17.59;100.00
10652;BME280;5374;42.742;23.266;2023-09-18T00:46:18;95894.47;;;17.65;100.00
10652;BME280;5374;42.742;23.266;2023-09-18T00:49:05;95904.38;;;17.70;100.00
10652;BME280;5374;42.742;23.266;2023-09-18T00:51:54;95901.09;;;17.78;100.00
10652;BME280;5374;42.742;23.266;2023-09-18T00:54:44;95914.19;;;17.85;100.00
10652;BME280;5374;42.742;23.266;2023-09-18T00:57:32;95912.59;;;17.84;100.00
10652;BME280;5374;42.742;23.266;2023-09-18T01:00:21;95916.56;;;17.86;100.00
10652;BME280;5374;42.742;23.266;2023-09-18T01:03:09;95912.28;;;17.85;100.00
10652;BME280;5374;42.742;23.266;2023-09-18T01:05:56;95918.97;;;17.88;100.00
10652;BME280;5374;42.742;23.266;2023-09-18T01:08:43;95911.44;;;17.90;100.00
10652;BME280;5374;42.742;23.266;2023-09-18T01:11:36;95920.81;;;17.92;100.00
10652;BME280;5374;42.742;23.266;2023-09-18T01:14:29;95922.09;;;18.00;100.00
10652;BME280;5374;42.742;23.266;2023-09-18T01:17:20;95925.88;;;17.99;100.00
10652;BME280;5374;42.742;23.266;2023-09-18T01:20:09;95925.94;;;17.89;100.00
10652;BME280;5374;42.742;23.266;2023-09-18T01:22:58;95918.53;;;17.81;100.00
10652;BME280;5374;42.742;23.266;2023-09-18T01:25:45;95900.81;;;17.80;100.00
10652;BME280;5374;42.742;23.266;2023-09-18T01:28:33;95913.06;;;17.86;100.00
10652;BME280;5374;42.742;23.266;2023-09-18T01:31:20;95914.69;;;17.87;100.00
10652;BME280;5374;42.742;23.266;2023-09-18T01:34:07;95913.66;;;17.83;100.00
10652;BME280;5374;42.742;23.266;2023-09-18T01:36:57;95919.03;;;17.83;100.00
10652;BME280;5374;42.742;23.266;2023-09-18T01:39:47;95922.97;;;17.90;100.00
10652;BME280;5374;42.742;23.266;2023-09-18T01:42:35;95914.19;;;17.85;100.00
10652;BME280;5374;42.742;23.266;2023-09-18T01:45:22;95922.47;;;17.88;100.00
10652;BME280;5374;42.742;23.266;2023-09-18T01:48:09;95923.75;;;17.96;100.00
10652;BME280;5374;42.742;23.266;2023-09-18T01:50:56;95927.50;;;17.95;100.00
10652;BME280;5374;42.742;23.266;2023-09-18T01:53:43;95909.03;;;17.88;100.00
10652;BME280;5374;42.742;23.266;2023-09-18T01:56:32;95917.09;;;17.88;100.00
10652;BME280;5374;42.742;23.266;2023-09-18T01:59:20;95928.63;;;17.89;100.00
10652;BME280;5374;42.742;23.266;2023-09-18T02:02:08;95928.06;;;17.92;100.00
10652;BME280;5374;42.742;23.266;2023-09-18T02:04:57;95925.72;;;17.85;100.00
10652;BME280;5374;42.742;23.266;2023-09-18T02:07:44;95933.72;;;17.90;100.00
10652;BME280;5374;42.742;23.266;2023-09-18T02:10:34;95931.31;;;17.89;100.00
10652;BME280;5374;42.742;23.266;2023-09-18T02:13:23;95932.13;;;17.89;100.00
10652;BME280;5374;42.742;23.266;2023-09-18T02:16:10;95921.50;;;17.79;100.00
10652;BME280;5374;42.742;23.266;2023-09-18T02:19:00;95929.72;;;17.88;100.00
10652;BME280;5374;42.742;23.266;2023-09-18T02:21:47;95912.66;;;17.73;100.00
10652;BME280;5374;42.742;23.266;2023-09-18T02:24:34;95925.22;;;17.83;100.00
10652;BME280;5374;42.742;23.266;2023-09-18T02:27:22;95938.25;;;17.66;100.00
10652;BME280;5374;42.742;23.266;2023-09-18T02:30:11;95923.06;;;17.46;100.00
10652;BME280;5374;42.742;23.266;2023-09-18T02:32:58;95933.00;;;17.46;100.00
10652;BME280;5374;42.742;23.266;2023-09-18T02:35:48;95929.53;;;17.45;100.00
10652;BME280;5374;42.742;23.266;2023-09-18T02:38:35;95924.78;;;17.37;100.00
10652;BME280;5374;42.742;23.266;2023-09-18T02:41:23;95926.09;;;17.39;100.00
10652;BME280;5374;42.742;23.266;2023-09-18T02:44:10;95913.03;;;17.28;100.00
10652;BME280;5374;42.742;23.266;2023-09-18T02:46:58;95933.38;;;17.34;100.00
10652;BME280;5374;42.742;23.266;2023-09-18T02:49:45;95932.38;;;17.25;100.00
10652;BME280;5374;42.742;23.266;2023-09-18T02:52:33;95935.56;;;17.27;100.00
10652;BME280;5374;42.742;23.266;2023-09-18T02:55:20;95937.22;;;17.23;100.00
10652;BME280;5374;42.742;23.266;2023-09-18T02:58:07;95924.97;;;17.12;100.00
10652;BME280;5374;42.742;23.266;2023-09-18T03:01:10;95936.75;;;17.16;100.00
10652;BME280;5374;42.742;23.266;2023-09-18T03:04:05;95929.25;;;17.13;100.00
10652;BME280;5374;42.742;23.266;2023-09-18T03:06:52;95943.19;;;17.15;100.00
10652;BME280;5374;42.742;23.266;2023-09-18T03:09:40;95939.44;;;17.11;100.00
10652;BME280;5374;42.742;23.266;2023-09-18T03:12:27;95922.88;;;16.98;100.00
10652;BME280;5374;42.742;23.266;2023-09-18T03:15:17;95936.22;;;17.14;100.00
10652;BME280;5374;42.742;23.266;2023-09-18T03:18:06;95928.44;;;17.12;100.00
10652;BME280;5374;42.742;23.266;2023-09-18T03:20:55;95920.91;;;17.14;100.00
10652;BME280;5374;42.742;23.266;2023-09-18T03:23:42;95914.41;;;17.20;100.00
10652;BME280;5374;42.742;23.266;2023-09-18T03:26:29;95909.28;;;17.24;100.00
10652;BME280;5374;42.742;23.266;2023-09-18T03:29:16;95929.09;;;17.33;100.00
10652;BME280;5374;42.742;23.266;2023-09-18T03:32:04;95923.75;;;17.28;100.00
10652;BME280;5374;42.742;23.266;2023-09-18T03:34:51;95927.25;;;17.28;100.00
10652;BME280;5374;42.742;23.266;2023-09-18T03:37:40;95921.63;;;17.25;100.00
10652;BME280;5374;42.742;23.266;2023-09-18T03:40:27;95921.63;;;17.25;100.00
10652;BME280;5374;42.742;23.266;2023-09-18T03:43:14;95925.66;;;17.27;100.00
10652;BME280;5374;42.742;23.266;2023-09-18T03:46:04;95921.88;;;17.28;100.00
10652;BME280;5374;42.742;23.266;2023-09-18T03:48:51;95916.00;;;17.26;100.00
10652;BME280;5374;42.742;23.266;2023-09-18T03:51:38;95925.38;;;17.29;100.00
10652;BME280;5374;42.742;23.266;2023-09-18T03:54:27;95907.41;;;17.24;100.00
10652;BME280;5374;42.742;23.266;2023-09-18T03:57:14;95913.31;;;17.26;100.00
10652;BME280;5374;42.742;23.266;2023-09-18T04:00:02;95917.56;;;17.32;100.00
10652;BME280;5374;42.742;23.266;2023-09-18T04:02:49;95916.19;;;17.35;100.00
10652;BME280;5374;42.742;23.266;2023-09-18T04:05:36;95913.00;;;17.33;100.00
10652;BME280;5374;42.742;23.266;2023-09-18T04:08:23;95911.34;;;17.37;100.00
10652;BME280;5374;42.742;23.266;2023-09-18T04:11:13;95912.47;;;17.31;100.00
10652;BME280;5374;42.742;23.266;2023-09-18T04:14:00;95912.19;;;17.32;100.00
10652;BME280;5374;42.742;23.266;2023-09-18T04:16:49;95915.94;;;17.31;100.00
10652;BME280;5374;42.742;23.266;2023-09-18T04:19:36;95897.59;;;17.09;100.00
10652;BME280;5374;42.742;23.266;2023-09-18T04:22:23;95928.28;;;17.32;100.00
10652;BME280;5374;42.742;23.266;2023-09-18T04:25:10;95923.47;;;17.29;100.00
10652;BME280;5374;42.742;23.266;2023-09-18T04:27:59;95934.16;;;17.39;100.00
10652;BME280;5374;42.742;23.266;2023-09-18T04:30:46;95915.06;;;17.41;100.00
10652;BME280;5374;42.742;23.266;2023-09-18T04:33:33;95925.47;;;17.48;100.00
10652;BME280;5374;42.742;23.266;2023-09-18T04:36:20;95927.88;;;17.49;100.00
10652;BME280;5374;42.742;23.266;2023-09-18T04:39:08;95939.91;;;17.57;100.00
10652;BME280;5374;42.742;23.266;2023-09-18T04:41:55;95940.16;;;17.60;100.00
10652;BME280;5374;42.742;23.266;2023-09-18T04:44:43;95924.59;;;17.57;100.00
10652;BME280;5374;42.742;23.266;2023-09-18T04:47:31;95942.50;;;17.72;100.00
10652;BME280;5374;42.742;23.266;2023-09-18T04:50:18;95945.91;;;17.83;100.00
10652;BME280;5374;42.742;23.266;2023-09-18T04:53:06;95932.69;;;17.86;100.00
10652;BME280;5374;42.742;23.266;2023-09-18T04:55:54;95932.28;;;18.03;100.00
10652;BME280;5374;42.742;23.266;2023-09-18T04:58:41;95941.22;;;18.22;100.00
10652;BME280;5374;42.742;23.266;2023-09-18T05:01:30;95932.97;;;18.37;100.00
10652;BME280;5374;42.742;23.266;2023-09-18T05:04:17;95927.72;;;18.51;100.00
10652;BME280;5374;42.742;23.266;2023-09-18T05:07:04;95929.09;;;18.72;100.00
10652;BME280;5374;42.742;23.266;2023-09-18T05:09:52;95918.28;;;18.96;100.00
10652;BME280;5374;42.742;23.266;2023-09-18T05:12:39;95932.63;;;19.43;100.00
10652;BME280;5374;42.742;23.266;2023-09-18T05:15:27;95926.78;;;21.38;100.00
10652;BME280;5374;42.742;23.266;2023-09-18T05:18:17;95930.31;;;23.88;100.00
10652;BME280;5374;42.742;23.266;2023-09-18T05:21:04;95936.47;;;26.15;100.00
10652;BME280;5374;42.742;23.266;2023-09-18T05:23:51;95950.50;;;28.04;97.35
10652;BME280;5374;42.742;23.266;2023-09-18T05:26:39;95966.00;;;29.22;63.96
10652;BME280;5374;42.742;23.266;2023-09-18T05:29:26;95966.16;;;29.99;52.99
10652;BME280;5374;42.742;23.266;2023-09-18T05:32:13;95972.66;;;31.02;45.42
10652;BME280;5374;42.742;23.266;2023-09-18T05:35:02;95976.84;;;32.35;41.73
10652;BME280;5374;42.742;23.266;2023-09-18T05:37:52;95966.03;;;33.48;39.13
10652;BME280;5374;42.742;23.266;2023-09-18T05:40:40;95966.47;;;34.44;37.25
10652;BME280;5374;42.742;23.266;2023-09-18T05:43:27;95976.34;;;35.66;34.77
10652;BME280;5374;42.742;23.266;2023-09-18T05:46:15;95978.75;;;36.54;33.45
10652;BME280;5374;42.742;23.266;2023-09-18T05:49:03;95979.53;;;37.55;31.88
10652;BME280;5374;42.742;23.266;2023-09-18T05:51:51;95973.09;;;38.03;31.18
10652;BME280;5374;42.742;23.266;2023-09-18T05:54:38;95975.72;;;39.01;29.78
10652;BME280;5374;42.742;23.266;2023-09-18T05:57:25;95986.91;;;39.87;28.62
10652;BME280;5374;42.742;23.266;2023-09-18T06:00:13;95978.28;;;40.41;27.39
10652;BME280;5374;42.742;23.266;2023-09-18T06:03:03;95976.81;;;40.89;27.03
10652;BME280;5374;42.742;23.266;2023-09-18T06:05:52;95970.78;;;40.90;26.76
10652;BME280;5374;42.742;23.266;2023-09-18T06:08:40;95967.22;;;41.39;26.33
10652;BME280;5374;42.742;23.266;2023-09-18T06:11:27;95952.47;;;42.12;25.93
10652;BME280;5374;42.742;23.266;2023-09-18T06:14:14;95965.84;;;42.59;24.78
10652;BME280;5374;42.742;23.266;2023-09-18T06:17:02;95963.53;;;42.83;24.24
10652;BME280;5374;42.742;23.266;2023-09-18T06:19:49;95952.34;;;41.74;24.68
10652;BME280;5374;42.742;23.266;2023-09-18T06:22:36;95963.59;;;41.25;25.33
10652;BME280;5374;42.742;23.266;2023-09-18T06:25:26;95969.09;;;40.60;25.80
10652;BME280;5374;42.742;23.266;2023-09-18T06:28:13;95966.34;;;38.04;28.63
10652;BME280;5374;42.742;23.266;2023-09-18T06:31:00;95957.41;;;34.57;33.18
10652;BME280;5374;42.742;23.266;2023-09-18T06:33:47;95962.56;;;34.73;33.18
10652;BME280;5374;42.742;23.266;2023-09-18T06:36:34;95965.69;;;34.47;33.47
10652;BME280;5374;42.742;23.266;2023-09-18T06:39:21;95964.31;;;33.87;34.65
10652;BME280;5374;42.742;23.266;2023-09-18T06:42:11;95962.91;;;31.27;38.60
10652;BME280;5374;42.742;23.266;2023-09-18T06:44:58;95964.59;;;30.86;40.40
10652;BME280;5374;42.742;23.266;2023-09-18T06:47:47;95958.22;;;31.05;40.35
10652;BME280;5374;42.742;23.266;2023-09-18T06:50:35;95952.78;;;29.98;42.39
10652;BME280;5374;42.742;23.266;2023-09-18T06:53:24;95952.28;;;29.38;44.69
10652;BME280;5374;42.742;23.266;2023-09-18T06:56:11;95951.09;;;29.19;44.36
10652;BME280;5374;42.742;23.266;2023-09-18T06:59:00;95960.81;;;27.95;46.70
10652;BME280;5374;42.742;23.266;2023-09-18T07:01:47;95956.94;;;27.55;48.41
10652;BME280;5374;42.742;23.266;2023-09-18T07:04:35;95954.00;;;27.36;48.96
10652;BME280;5374;42.742;23.266;2023-09-18T07:07:22;95939.66;;;27.51;47.94
10652;BME280;5374;42.742;23.266;2023-09-18T07:10:11;95956.34;;;27.74;48.37
10652;BME280;5374;42.742;23.266;2023-09-18T07:12:58;95943.09;;;28.04;47.62
10652;BME280;5374;42.742;23.266;2023-09-18T07:15:46;95944.06;;;28.24;47.66
10652;BME280;5374;42.742;23.266;2023-09-18T07:18:35;95946.47;;;28.57;45.90
10652;BME280;5374;42.742;23.266;2023-09-18T07:21:22;95951.19;;;28.29;46.18
10652;BME280;5374;42.742;23.266;2023-09-18T07:24:10;95939.13;;;28.02;48.13
10652;BME280;5374;42.742;23.266;2023-09-18T07:27:02;95946.19;;;28.03;48.04
10652;BME280;5374;42.742;23.266;2023-09-18T07:29:49;95931.56;;;27.95;48.36
10652;BME280;5374;42.742;23.266;2023-09-18T07:32:39;95942.16;;;28.12;46.65
10652;BME280;5374;42.742;23.266;2023-09-18T07:35:27;95944.78;;;28.21;46.06
10652;BME280;5374;42.742;23.266;2023-09-18T07:38:15;95947.03;;;28.19;47.23
10652;BME280;5374;42.742;23.266;2023-09-18T07:41:02;95940.91;;;28.53;46.89
10652;BME280;5374;42.742;23.266;2023-09-18T07:43:49;95936.94;;;28.51;46.02
10652;BME280;5374;42.742;23.266;2023-09-18T07:46:36;95900.16;;;28.17;45.85
10652;BME280;5374;42.742;23.266;2023-09-18T07:49:24;95932.25;;;28.36;45.96
10652;BME280;5374;42.742;23.266;2023-09-18T07:52:11;95956.34;;;28.77;47.23
10652;BME280;5374;42.742;23.266;2023-09-18T07:54:59;95937.72;;;28.51;46.62
10652;BME280;5374;42.742;23.266;2023-09-18T07:57:46;95928.59;;;28.16;46.80
10652;BME280;5374;42.742;23.266;2023-09-18T08:00:35;95945.94;;;28.08;47.76
10652;BME280;5374;42.742;23.266;2023-09-18T08:03:22;95937.28;;;28.06;47.09
10652;BME280;5374;42.742;23.266;2023-09-18T08:06:11;95938.44;;;28.05;47.41
10652;BME280;5374;42.742;23.266;2023-09-18T08:09:00;95948.41;;;27.97;47.56
10652;BME280;5374;42.742;23.266;2023-09-18T08:11:47;95935.72;;;28.05;48.32
10652;BME280;5374;42.742;23.266;2023-09-18T08:14:35;95937.72;;;28.20;47.75
10652;BME280;5374;42.742;23.266;2023-09-18T08:17:23;95936.81;;;28.16;46.83
10652;BME280;5374;42.742;23.266;2023-09-18T08:20:11;95931.19;;;28.24;46.51
10652;BME280;5374;42.742;23.266;2023-09-18T08:23:01;95922.81;;;27.89;47.22
10652;BME280;5374;42.742;23.266;2023-09-18T08:25:51;95913.38;;;27.59;48.06
10652;BME280;5374;42.742;23.266;2023-09-18T08:28:41;95923.63;;;27.90;47.18
10652;BME280;5374;42.742;23.266;2023-09-18T08:31:30;95936.69;;;27.69;47.67
10652;BME280;5374;42.742;23.266;2023-09-18T08:34:18;95918.94;;;27.63;48.09
10652;BME280;5374;42.742;23.266;2023-09-18T08:37:05;95920.84;;;27.74;47.58
10652;BME280;5374;42.742;23.266;2023-09-18T08:39:53;95902.88;;;27.73;47.63
10652;BME280;5374;42.742;23.266;2023-09-18T08:42:45;95911.13;;;27.49;48.50
10652;BME280;5374;42.742;23.266;2023-09-18T08:45:35;95905.22;;;27.47;47.95
10652;BME280;5374;42.742;23.266;2023-09-18T08:48:25;95900.25;;;27.37;48.13
10652;BME280;5374;42.742;23.266;2023-09-18T08:51:16;95898.97;;;26.82;51.50
10652;BME280;5374;42.742;23.266;2023-09-18T08:54:06;95893.78;;;26.40;51.96
10652;BME280;5374;42.742;23.266;2023-09-18T08:56:54;95886.72;;;26.51;51.96
10652;BME280;5374;42.742;23.266;2023-09-18T08:59:43;95885.34;;;26.70;51.04
10652;BME280;5374;42.742;23.266;2023-09-18T09:02:32;95899.63;;;26.91;50.18
10652;BME280;5374;42.742;23.266;2023-09-18T09:05:19;95900.22;;;27.09;49.40
10652;BME280;5374;42.742;23.266;2023-09-18T09:08:06;95894.91;;;27.00;49.98
10652;BME280;5374;42.742;23.266;2023-09-18T09:10:53;95892.72;;;26.94;50.54
10652;BME280;5374;42.742;23.266;2023-09-18T09:13:45;95883.41;;;26.95;51.06
10652;BME280;5374;42.742;23.266;2023-09-18T09:16:32;95892.78;;;27.34;48.80
10652;BME280;5374;42.742;23.266;2023-09-18T09:19:28;95881.88;;;27.21;49.45
10652;BME280;5374;42.742;23.266;2023-09-18T09:22:20;95865.53;;;27.21;49.49
10652;BME280;5374;42.742;23.266;2023-09-18T09:25:24;95878.69;;;27.32;47.22
10652;BME280;5374;42.742;23.266;2023-09-18T09:28:12;95871.91;;;27.53;46.73
10652;BME280;5374;42.742;23.266;2023-09-18T09:31:01;95868.53;;;27.44;47.42
10652;BME280;5374;42.742;23.266;2023-09-18T09:33:50;95856.31;;;27.54;47.58
10652;BME280;5374;42.742;23.266;2023-09-18T09:36:52;95862.78;;;27.34;46.81
10652;BME280;5374;42.742;23.266;2023-09-18T09:39:57;95874.56;;;27.38;47.04
10652;BME280;5374;42.742;23.266;2023-09-18T09:42:55;95864.06;;;27.52;47.00
10652;BME280;5374;42.742;23.266;2023-09-18T09:45:46;95864.28;;;27.59;46.16
10652;BME280;5374;42.742;23.266;2023-09-18T09:48:37;95861.38;;;27.40;47.21
10652;BME280;5374;42.742;23.266;2023-09-18T09:51:25;95860.69;;;27.43;45.64
10652;BME280;5374;42.742;23.266;2023-09-18T09:54:12;95862.97;;;27.41;46.00
10652;BME280;5374;42.742;23.266;2023-09-18T09:57:02;95859.44;;;27.40;47.00
10652;BME280;5374;42.742;23.266;2023-09-18T09:59:49;95848.59;;;27.56;46.03
10652;BME280;5374;42.742;23.266;2023-09-18T10:02:37;95847.09;;;27.31;46.18
10652;BME280;5374;42.742;23.266;2023-09-18T10:05:27;95849.84;;;27.58;45.37
10652;BME280;5374;42.742;23.266;2023-09-18T10:08:17;95847.22;;;27.22;45.82
10652;BME280;5374;42.742;23.266;2023-09-18T10:11:06;95847.22;;;27.22;45.70
10652;BME280;5374;42.742;23.266;2023-09-18T10:13:58;95838.38;;;27.53;45.33
10652;BME280;5374;42.742;23.266;2023-09-18T10:16:54;95830.13;;;27.65;45.67
10652;BME280;5374;42.742;23.266;2023-09-18T10:19:45;95823.09;;;27.80;44.66
10652;BME280;5374;42.742;23.266;2023-09-18T10:22:43;95835.66;;;27.97;44.14
10652;BME280;5374;42.742;23.266;2023-09-18T10:25:32;95824.81;;;28.16;42.75
10652;BME280;5374;42.742;23.266;2023-09-18T10:28:23;95806.81;;;27.83;43.10
10652;BME280;5374;42.742;23.266;2023-09-18T10:31:12;95819.78;;;27.86;43.37
10652;BME280;5374;42.742;23.266;2023-09-18T10:34:01;95800.47;;;27.36;44.65
10652;BME280;5374;42.742;23.266;2023-09-18T10:36:51;95778.63;;;27.36;44.49
10652;BME280;5374;42.742;23.266;2023-09-18T10:39:41;95802.19;;;27.56;45.09
10652;BME280;5374;42.742;23.266;2023-09-18T10:42:29;95796.94;;;27.63;44.68
10652;BME280;5374;42.742;23.266;2023-09-18T10:45:19;95803.94;;;27.48;43.98
10652;BME280;5374;42.742;23.266;2023-09-18T10:48:07;95793.06;;;27.64;43.13
10652;BME280;5374;42.742;23.266;2023-09-18T10:50:56;95790.53;;;27.71;43.56
10652;BME280;5374;42.742;23.266;2023-09-18T10:53:44;95797.69;;;27.91;43.22
10652;BME280;5374;42.742;23.266;2023-09-18T10:56:33;95772.81;;;27.81;43.01
10652;BME280;5374;42.742;23.266;2023-09-18T10:59:20;95788.44;;;27.96;42.65
10652;BME280;5374;42.742;23.266;2023-09-18T11:02:08;95791.03;;;27.61;43.54
10652;BME280;5374;42.742;23.266;2023-09-18T11:04:55;95783.59;;;27.46;43.77
10652;BME280;5374;42.742;23.266;2023-09-18T11:07:43;95773.75;;;27.57;43.75
10652;BME280;5374;42.742;23.266;2023-09-18T11:10:30;95780.66;;;27.39;44.72
10652;BME280;5374;42.742;23.266;2023-09-18T11:13:28;95762.84;;;27.57;45.00
10652;BME280;5374;42.742;23.266;2023-09-18T11:16:18;95773.97;;;27.64;44.86
10652;BME280;5374;42.742;23.266;2023-09-18T11:19:09;95749.06;;;27.81;42.42
10652;BME280;5374;42.742;23.266;2023-09-18T11:22:06;95756.75;;;27.76;43.62
10652;BME280;5374;42.742;23.266;2023-09-18T11:24:54;95738.69;;;27.71;43.32
10652;BME280;5374;42.742;23.266;2023-09-18T11:27:52;95736.13;;;27.94;42.36
10652;BME280;5374;42.742;23.266;2023-09-18T11:30:49;95757.25;;;28.13;42.47
10652;BME280;5374;42.742;23.266;2023-09-18T11:33:38;95755.13;;;27.90;42.76
10652;BME280;5374;42.742;23.266;2023-09-18T11:36:29;95749.38;;;27.48;43.44
10652;BME280;5374;42.742;23.266;2023-09-18T11:39:34;95739.84;;;27.27;44.89
10652;BME280;5374;42.742;23.266;2023-09-18T11:42:22;95738.63;;;27.40;43.82
10652;BME280;5374;42.742;23.266;2023-09-18T11:45:16;95731.34;;;27.16;43.37
10652;BME280;5374;42.742;23.266;2023-09-18T11:48:05;95722.28;;;27.55;43.09
10652;BME280;5374;42.742;23.266;2023-09-18T11:50:53;95732.81;;;27.57;42.76
10652;BME280;5374;42.742;23.266;2023-09-18T11:53:40;95728.72;;;27.63;42.67
10652;BME280;5374;42.742;23.266;2023-09-18T11:56:29;95726.38;;;27.77;42.46
10652;BME280;5374;42.742;23.266;2023-09-18T11:59:17;95727.16;;;27.78;43.09
10652;BME280;5374;42.742;23.266;2023-09-18T12:02:05;95726.34;;;27.93;42.01
10652;BME280;5374;42.742;23.266;2023-09-18T12:04:55;95730.13;;;28.20;41.16
10652;BME280;5374;42.742;23.266;2023-09-18T12:07:44;95729.69;;;27.55;43.30
10652;BME280;5374;42.742;23.266;2023-09-18T12:10:31;95729.34;;;27.88;43.60
10652;BME280;5374;42.742;23.266;2023-09-18T12:13:18;95726.06;;;27.82;43.28
10652;BME280;5374;42.742;23.266;2023-09-18T12:16:06;95715.50;;;27.97;42.08
10652;BME280;5374;42.742;23.266;2023-09-18T12:18:55;95720.69;;;28.02;42.27
10652;BME280;5374;42.742;23.266;2023-09-18T12:21:46;95715.22;;;28.02;43.01
10652;BME280;5374;42.742;23.266;2023-09-18T12:24:34;95718.09;;;27.74;43.16
10652;BME280;5374;42.742;23.266;2023-09-18T12:27:21;95723.25;;;27.63;44.04
10652;BME280;5374;42.742;23.266;2023-09-18T12:30:13;95687.16;;;27.54;43.75
10652;BME280;5374;42.742;23.266;2023-09-18T12:33:06;95698.34;;;27.65;43.92
10652;BME280;5374;42.742;23.266;2023-09-18T12:35:53;95703.53;;;27.85;42.85
10652;BME280;5374;42.742;23.266;2023-09-18T12:38:42;95715.50;;;27.97;42.98
10652;BME280;5374;42.742;23.266;2023-09-18T12:41:30;95712.94;;;28.04;42.09
10652;BME280;5374;42.742;23.266;2023-09-18T12:44:18;95699.44;;;28.11;42.48
10652;BME280;5374;42.742;23.266;2023-09-18T12:47:05;95712.22;;;28.07;41.87
10652;BME280;5374;42.742;23.266;2023-09-18T12:49:52;95705.88;;;28.03;42.16
10652;BME280;5374;42.742;23.266;2023-09-18T12:52:40;95691.69;;;28.13;41.79
10652;BME280;5374;42.742;23.266;2023-09-18T12:55:29;95695.84;;;28.22;41.78
10652;BME280;5374;42.742;23.266;2023-09-18T12:58:18;95695.81;;;28.38;41.50
10652;BME280;5374;42.742;23.266;2023-09-18T13:01:06;95697.13;;;28.44;41.18
10652;BME280;5374;42.742;23.266;2023-09-18T13:03:57;95701.91;;;28.51;41.42
10652;BME280;5374;42.742;23.266;2023-09-18T13:07:03;95683.41;;;28.25;41.37
10652;BME280;5374;42.742;23.266;2023-09-18T13:09:59;95691.31;;;28.30;42.51
10652;BME280;5374;42.742;23.266;2023-09-18T13:12:49;95677.69;;;28.14;42.56
10652;BME280;5374;42.742;23.266;2023-09-18T13:15:38;95690.63;;;28.17;42.73
10652;BME280;5374;42.742;23.266;2023-09-18T13:18:26;95688.91;;;27.94;43.78
10652;BME280;5374;42.742;23.266;2023-09-18T13:21:13;95683.91;;;27.48;43.09
10652;BME280;5374;42.742;23.266;2023-09-18T13:24:00;95685.16;;;27.67;42.24
10652;BME280;5374;42.742;23.266;2023-09-18T13:26:52;95691.03;;;27.69;43.09
10652;BME280;5374;42.742;23.266;2023-09-18T13:29:41;95685.16;;;27.67;44.72
10652;BME280;5374;42.742;23.266;2023-09-18T13:32:28;95690.16;;;27.80;43.78
10652;BME280;5374;42.742;23.266;2023-09-18T13:35:16;95693.31;;;27.82;42.34
10652;BME280;5374;42.742;23.266;2023-09-18T13:38:03;95678.81;;;27.78;42.20
10652;BME280;5374;42.742;23.266;2023-09-18T13:40:51;95681.47;;;27.75;42.83
10652;BME280;5374;42.742;23.266;2023-09-18T13:43:39;95686.56;;;27.76;42.23
10652;BME280;5374;42.742;23.266;2023-09-18T13:46:29;95681.59;;;27.82;41.63
10652;BME280;5374;42.742;23.266;2023-09-18T13:49:16;95685.69;;;27.72;42.13
10652;BME280;5374;42.742;23.266;2023-09-18T13:52:04;95660.41;;;27.60;42.63
10652;BME280;5374;42.742;23.266;2023-09-18T13:54:51;95678.72;;;27.59;42.85
10652;BME280;5374;42.742;23.266;2023-09-18T13:57:38;95672.78;;;27.57;43.85
10652;BME280;5374;42.742;23.266;2023-09-18T14:00:26;95664.34;;;27.46;44.43
10652;BME280;5374;42.742;23.266;2023-09-18T14:03:15;95666.72;;;27.48;44.58
10652;BME280;5374;42.742;23.266;2023-09-18T14:06:04;95664.00;;;27.48;44.12
10652;BME280;5374;42.742;23.266;2023-09-18T14:08:52;95673.59;;;27.42;44.77
10652;BME280;5374;42.742;23.266;2023-09-18T14:11:39;95664.88;;;27.36;45.11
10652;BME280;5374;42.742;23.266;2023-09-18T14:14:27;95663.72;;;27.21;45.38
10652;BME280;5374;42.742;23.266;2023-09-18T14:17:14;95665.00;;;26.96;45.71
10652;BME280;5374;42.742;23.266;2023-09-18T14:20:05;95666.88;;;27.08;45.89
10652;BME280;5374;42.742;23.266;2023-09-18T14:22:53;95667.94;;;27.03;45.46
10652;BME280;5374;42.742;23.266;2023-09-18T14:25:40;95653.00;;;26.85;45.60
10652;BME280;5374;42.742;23.266;2023-09-18T14:28:28;95666.34;;;26.90;45.67
10652;BME280;5374;42.742;23.266;2023-09-18T14:31:15;95647.34;;;26.78;46.38
10652;BME280;5374;42.742;23.266;2023-09-18T14:34:02;95641.97;;;26.66;46.45
10652;BME280;5374;42.742;23.266;2023-09-18T14:36:52;95655.16;;;26.64;46.78
10652;BME280;5374;42.742;23.266;2023-09-18T14:39:40;95655.94;;;26.64;46.00
10652;BME280;5374;42.742;23.266;2023-09-18T14:42:27;95642.91;;;26.58;46.33
10652;BME280;5374;42.742;23.266;2023-09-18T14:45:14;95641.66;;;26.55;46.16
10652;BME280;5374;42.742;23.266;2023-09-18T14:48:02;95654.03;;;26.52;46.96
10652;BME280;5374;42.742;23.266;2023-09-18T14:50:53;95637.47;;;26.45;47.10